Home PIREPS Pireps

Flight BEL11071TR

  • Submitted By: AndrĂ© Vincent
  • Departure Airport: Bruxelles National (EBBR)
  • Arrival Airport: Lyon-Saint-Exupery (LFLL)
  • Aircraft: YOUR CHOICE (YC)
  • Flight Time: 01.22
  • Date Submitted: 05/08/2017
  • Status: Accepted
Flight Details
Gross Revenue:
(25 load / € 0.00 per unit
€ 0.00
Fuel Cost:
(6290 fuel used @ 5.1 / unit)
€ 32,079.00

Additional Log Information:

View Log

Aircraft Used in flight is Boeing 737-800 sabena paint
07:36 Brakes are On
07:38 Brakes are Released
07:43 You Took off @ 206 Knots and Flaps at Position 2
Departure Weather
EBBR 050520Z 21007KT 9999 RA FEW009 13/12 Q1014 NOSIGrn
07:43 You are Airborne and your Navigation Lights are off
07:47 Landing Gear Up @ 188 Knots and 12280 Feet
08:27 You exceeded maximum bank angle
08:28 Overspeed
08:29 Recovered from Overspeed
08:51 Landing Gear Down @ 149 Knots and 3010 Feet
08:54 You Landed @ 118 Knots and with -1350 Vertical Speed
Arrival Weather
LFLL 050630Z VRB03KT CAVOK 23/16 Q1017 NOSIGrn
08:54 Your Landing was very hard
08:57 Brakes are On
08:58 Brussels Bel-Track1.0.1.2

Route Map

Corporate About Us Our Team Vacancies Information Fleet Route Network Rules and Regulations Operations Flight Schedules Event Center Tours Partners IVAO Vatsim Acars dev FSCB

fb Users Online No pilots online!
0 Pilot(s) and 115 Guest(s) Online
CMS by phpVMS - Design by Crazycreatives.com - Copyright © 2018 - Brussels Airlines Virtual